createdAt,value
2017-05-06T00:00:06.929Z,1011.59
2017-05-06T00:01:06.833Z,1011.61
2017-05-06T00:02:00.788Z,1011.59
2017-05-06T00:03:00.757Z,1011.59
2017-05-06T00:03:55.658Z,1011.57
2017-05-06T00:04:50.225Z,1011.56
2017-05-06T00:05:43.710Z,1011.52
2017-05-06T00:06:37.650Z,1011.52
2017-05-06T00:07:32.638Z,1011.51
2017-05-06T00:08:27.176Z,1011.49
2017-05-06T00:09:21.661Z,1011.46
2017-05-06T00:10:09.321Z,1011.46
2017-05-06T00:11:03.165Z,1011.44
2017-05-06T00:11:57.098Z,1011.42
2017-05-06T00:12:51.053Z,1011.41
2017-05-06T00:13:45.299Z,1011.39
2017-05-06T00:14:39.043Z,1011.36
2017-05-06T00:15:32.982Z,1011.33
2017-05-06T00:16:26.955Z,1011.39
2017-05-06T00:17:20.839Z,1011.33
2017-05-06T00:18:15.976Z,1011.31
2017-05-06T00:19:15.358Z,1011.36
2017-05-06T00:20:15.272Z,1011.35
2017-05-06T00:21:03.277Z,1011.30
2017-05-06T00:21:57.278Z,1011.28
2017-05-06T00:22:45.146Z,1011.30
2017-05-06T00:23:45.484Z,1011.27
2017-05-06T00:24:39.085Z,1011.29
2017-05-06T00:25:33.032Z,1011.22
2017-05-06T00:26:27.979Z,1011.28
2017-05-06T00:27:22.508Z,1011.22
2017-05-06T00:28:22.033Z,1011.19
2017-05-06T00:29:16.060Z,1011.18
2017-05-06T00:30:10.922Z,1011.14
2017-05-06T00:30:58.455Z,1011.16
2017-05-06T00:31:58.526Z,1011.15
2017-05-06T00:32:46.387Z,1011.12
2017-05-06T00:33:34.344Z,1011.10
2017-05-06T00:34:28.518Z,1011.10
2017-05-06T00:35:28.249Z,1011.10
2017-05-06T00:36:23.191Z,1011.06
2017-05-06T00:37:17.713Z,1011.10
2017-05-06T00:38:11.216Z,1011.06
2017-05-06T00:39:00.211Z,1011.16
2017-05-06T00:39:54.743Z,1011.11
2017-05-06T00:40:54.249Z,1011.10
2017-05-06T00:41:49.207Z,1011.14
2017-05-06T00:42:48.751Z,1011.07
2017-05-06T00:43:37.719Z,1011.09
2017-05-06T00:44:37.261Z,1011.10
2017-05-06T00:45:31.156Z,1011.04
2017-05-06T00:46:19.122Z,1011.06
2017-05-06T00:47:08.049Z,1011.05
2017-05-06T00:48:01.569Z,1011.03
2017-05-06T00:49:02.841Z,1011.01
2017-05-06T00:49:56.082Z,1011.02
2017-05-06T00:50:56.059Z,1011.03
2017-05-06T00:51:51.067Z,1011.00
2017-05-06T00:52:45.503Z,1010.95
2017-05-06T00:53:44.965Z,1010.96
2017-05-06T00:54:38.952Z,1010.97
2017-05-06T00:55:32.930Z,1010.97
2017-05-06T00:56:21.893Z,1010.96
2017-05-06T00:57:09.420Z,1010.90
2017-05-06T00:58:03.382Z,1010.93
2017-05-06T00:58:52.354Z,1010.95
2017-05-06T00:59:51.822Z,1010.94
2017-05-06T01:00:45.848Z,1010.94
2017-05-06T01:01:39.728Z,1010.95
2017-05-06T01:02:34.721Z,1010.96
2017-05-06T01:03:35.241Z,1010.92
2017-05-06T01:04:30.220Z,1010.92
2017-05-06T01:05:24.324Z,1010.88
2017-05-06T01:06:12.818Z,1010.89
2017-05-06T01:07:06.334Z,1010.88
2017-05-06T01:08:00.317Z,1010.87
2017-05-06T01:08:54.256Z,1010.87
2017-05-06T01:09:49.209Z,1010.90
2017-05-06T01:10:36.742Z,1010.85
2017-05-06T01:11:31.652Z,1010.91
2017-05-06T01:12:31.598Z,1010.90
2017-05-06T01:13:14.131Z,1010.88
2017-05-06T01:14:13.614Z,1010.89
2017-05-06T01:15:01.596Z,1010.91
2017-05-06T01:15:56.571Z,1010.90
2017-05-06T01:16:45.102Z,1010.89
2017-05-06T01:17:38.561Z,1010.95
2017-05-06T01:18:38.600Z,1010.91
2017-05-06T01:19:33.538Z,1010.86
2017-05-06T01:20:28.032Z,1010.87
2017-05-06T01:21:21.651Z,1010.86
2017-05-06T01:22:15.550Z,1010.83
2017-05-06T01:23:10.522Z,1010.84
2017-05-06T01:24:05.518Z,1010.81
2017-05-06T01:24:59.548Z,1010.80
2017-05-06T01:25:59.069Z,1010.80
2017-05-06T01:26:54.045Z,1010.78
2017-05-06T01:27:53.536Z,1010.78
2017-05-06T01:28:53.445Z,1010.76
2017-05-06T01:29:48.472Z,1010.73
2017-05-06T01:30:42.984Z,1010.74
2017-05-06T01:31:36.468Z,1010.74
2017-05-06T01:32:31.884Z,1010.72
2017-05-06T01:33:36.956Z,1010.67
2017-05-06T01:34:31.909Z,1010.69
2017-05-06T01:35:26.455Z,1010.71
2017-05-06T01:36:25.940Z,1010.67
2017-05-06T01:37:19.904Z,1010.65
2017-05-06T01:38:19.940Z,1010.60
2017-05-06T01:39:13.839Z,1010.60
2017-05-06T01:40:08.773Z,1010.57
2017-05-06T01:41:03.260Z,1010.53
2017-05-06T01:41:57.791Z,1010.57
2017-05-06T01:42:52.318Z,1010.50
2017-05-06T01:43:47.201Z,1010.51
2017-05-06T01:44:46.338Z,1010.52
2017-05-06T01:45:40.272Z,1010.48
2017-05-06T01:46:34.239Z,1010.43
2017-05-06T01:47:23.241Z,1010.40
2017-05-06T01:48:22.735Z,1010.44
2017-05-06T01:49:11.763Z,1010.44
2017-05-06T01:50:06.245Z,1010.41
2017-05-06T01:51:11.745Z,1010.41
2017-05-06T01:52:05.656Z,1010.45
2017-05-06T01:53:00.636Z,1010.42
2017-05-06T01:54:00.149Z,1010.46
2017-05-06T01:54:54.168Z,1010.38
2017-05-06T01:55:48.071Z,1010.39
2017-05-06T01:56:36.075Z,1010.37
2017-05-06T01:57:23.999Z,1010.37
2017-05-06T01:58:23.928Z,1010.33
2017-05-06T01:59:17.923Z,1010.33
2017-05-06T02:00:17.857Z,1010.32
2017-05-06T02:01:05.829Z,1010.33
2017-05-06T02:02:06.869Z,1010.30
2017-05-06T02:03:00.322Z,1010.26
2017-05-06T02:04:00.281Z,1010.27
2017-05-06T02:04:54.254Z,1010.25
2017-05-06T02:05:48.204Z,1010.23
2017-05-06T02:06:42.108Z,1010.25
2017-05-06T02:07:42.037Z,1010.22
2017-05-06T02:08:31.464Z,1010.20
2017-05-06T02:09:24.529Z,1010.20
2017-05-06T02:10:18.534Z,1010.17
2017-05-06T02:11:18.630Z,1010.17
2017-05-06T02:12:12.398Z,1010.17
2017-05-06T02:13:06.382Z,1010.16
2017-05-06T02:13:54.348Z,1010.16
2017-05-06T02:14:49.285Z,1010.19
2017-05-06T02:15:42.837Z,1010.15
2017-05-06T02:16:37.762Z,1010.14
2017-05-06T02:17:37.306Z,1010.17
2017-05-06T02:18:31.250Z,1010.15
2017-05-06T02:19:26.621Z,1010.10
2017-05-06T02:20:25.729Z,1010.08
2017-05-06T02:21:19.664Z,1010.09
2017-05-06T02:22:13.623Z,1010.07
2017-05-06T02:23:08.578Z,1010.04
2017-05-06T02:24:14.148Z,1010.03
2017-05-06T02:25:08.011Z,1009.98
2017-05-06T02:26:03.035Z,1010.00
2017-05-06T02:26:56.561Z,1009.94
2017-05-06T02:27:56.531Z,1009.99
2017-05-06T02:28:45.864Z,1009.98
2017-05-06T02:29:39.948Z,1009.97
2017-05-06T02:30:34.477Z,1009.98
2017-05-06T02:31:29.028Z,1009.97
2017-05-06T02:32:28.566Z,1009.97
2017-05-06T02:33:17.525Z,1009.97
2017-05-06T02:34:17.016Z,1009.98
2017-05-06T02:35:10.921Z,1009.93
2017-05-06T02:36:04.930Z,1009.94
2017-05-06T02:36:58.856Z,1009.95
2017-05-06T02:37:47.819Z,1009.92
2017-05-06T02:38:36.658Z,1009.93
2017-05-06T02:39:30.858Z,1009.95
2017-05-06T02:40:30.746Z,1009.95
2017-05-06T02:41:13.351Z,1009.92
2017-05-06T02:42:00.932Z,1009.92
2017-05-06T02:42:54.894Z,1009.91
2017-05-06T02:43:49.150Z,1009.91
2017-05-06T02:44:42.782Z,1009.93
2017-05-06T02:45:37.759Z,1009.88
2017-05-06T02:46:37.326Z,1009.97
2017-05-06T02:47:26.292Z,1009.97
2017-05-06T02:48:25.794Z,1009.95
2017-05-06T02:49:19.653Z,1009.97
2017-05-06T02:50:08.614Z,1009.96
2017-05-06T02:51:03.121Z,1009.97
2017-05-06T02:51:51.656Z,1009.99
2017-05-06T02:52:45.185Z,1009.95
2017-05-06T02:53:45.299Z,1009.99
2017-05-06T02:54:34.127Z,1009.95
2017-05-06T02:55:28.609Z,1009.99
2017-05-06T02:56:28.125Z,1009.95
2017-05-06T02:57:22.171Z,1009.98
2017-05-06T02:58:17.031Z,1009.96
2017-05-06T02:59:16.555Z,1009.98
2017-05-06T03:00:11.617Z,1009.97
2017-05-06T03:01:11.021Z,1009.92
2017-05-06T03:02:04.992Z,1009.97
2017-05-06T03:02:59.931Z,1010.01
2017-05-06T03:03:59.415Z,1009.99
2017-05-06T03:04:48.404Z,1009.96
2017-05-06T03:05:47.937Z,1009.96
2017-05-06T03:06:37.149Z,1009.94
2017-05-06T03:07:30.398Z,1009.94
2017-05-06T03:08:25.607Z,1009.95
2017-05-06T03:09:19.935Z,1009.96
2017-05-06T03:10:14.424Z,1009.94
2017-05-06T03:11:13.931Z,1009.96
2017-05-06T03:12:08.903Z,1009.94
2017-05-06T03:13:08.413Z,1009.95
2017-05-06T03:14:02.342Z,1009.93
2017-05-06T03:14:56.337Z,1009.93
2017-05-06T03:15:39.321Z,1009.93
2017-05-06T03:16:34.162Z,1009.91
2017-05-06T03:17:33.329Z,1009.90
2017-05-06T03:18:33.233Z,1009.90
2017-05-06T03:19:28.231Z,1009.88
2017-05-06T03:20:27.769Z,1009.87
2017-05-06T03:21:16.877Z,1009.86
2017-05-06T03:22:16.261Z,1009.86
2017-05-06T03:23:10.170Z,1009.85
2017-05-06T03:24:04.129Z,1009.83
2017-05-06T03:24:59.091Z,1009.85
2017-05-06T03:25:53.596Z,1009.80
2017-05-06T03:26:48.111Z,1009.85
2017-05-06T03:27:37.030Z,1009.82
2017-05-06T03:28:36.175Z,1009.82
2017-05-06T03:29:25.182Z,1009.78
2017-05-06T03:30:13.662Z,1009.82
2017-05-06T03:31:01.182Z,1009.80
2017-05-06T03:31:49.100Z,1009.79
2017-05-06T03:32:37.210Z,1009.82
2017-05-06T03:33:20.064Z,1009.82
2017-05-06T03:34:07.598Z,1009.81
2017-05-06T03:35:01.527Z,1009.84
2017-05-06T03:35:50.512Z,1009.85
2017-05-06T03:36:50.044Z,1009.82
2017-05-06T03:37:39.015Z,1009.81
2017-05-06T03:38:33.528Z,1009.83
2017-05-06T03:39:22.164Z,1009.75
2017-05-06T03:40:16.542Z,1009.79
2017-05-06T03:41:10.045Z,1009.78
2017-05-06T03:42:03.998Z,1009.78
2017-05-06T03:42:57.967Z,1009.75
2017-05-06T03:43:52.939Z,1009.73
2017-05-06T03:44:52.448Z,1009.71
2017-05-06T03:45:46.393Z,1009.72
2017-05-06T03:46:40.308Z,1009.71
2017-05-06T03:47:35.343Z,1009.69
2017-05-06T03:48:23.309Z,1009.71
2017-05-06T03:49:16.815Z,1009.69
2017-05-06T03:50:16.819Z,1009.72
2017-05-06T03:51:05.717Z,1009.67
2017-05-06T03:51:59.222Z,1009.67
2017-05-06T03:52:53.201Z,1009.65
2017-05-06T03:53:47.151Z,1009.68
2017-05-06T03:54:42.134Z,1009.69
2017-05-06T03:55:36.646Z,1009.69
2017-05-06T03:56:30.190Z,1009.71
2017-05-06T03:57:25.223Z,1009.72
2017-05-06T03:58:30.549Z,1009.73
2017-05-06T03:59:24.550Z,1009.73
2017-05-06T04:00:18.528Z,1009.68
2017-05-06T04:01:13.518Z,1009.74
2017-05-06T04:02:13.051Z,1009.71
2017-05-06T04:03:12.931Z,1009.66
2017-05-06T04:04:07.909Z,1009.68
2017-05-06T04:05:07.402Z,1009.71
2017-05-06T04:06:01.352Z,1009.77
2017-05-06T04:06:56.415Z,1009.79
2017-05-06T04:07:49.912Z,1009.82
2017-05-06T04:08:43.855Z,1009.82
2017-05-06T04:09:38.736Z,1009.84
2017-05-06T04:10:32.337Z,1009.84
2017-05-06T04:11:27.211Z,1009.83
2017-05-06T04:12:21.751Z,1009.83
2017-05-06T04:13:10.303Z,1009.84
2017-05-06T04:14:10.849Z,1009.85
2017-05-06T04:15:04.332Z,1009.84
2017-05-06T04:15:58.320Z,1009.88
2017-05-06T04:16:53.223Z,1009.87
2017-05-06T04:17:47.795Z,1009.89
2017-05-06T04:18:47.340Z,1009.86
2017-05-06T04:19:42.299Z,1009.85
2017-05-06T04:20:36.726Z,1009.88
2017-05-06T04:21:36.241Z,1009.85
2017-05-06T04:22:24.248Z,1009.88
2017-05-06T04:23:18.418Z,1009.90
2017-05-06T04:24:07.163Z,1009.92
2017-05-06T04:25:01.653Z,1009.90
2017-05-06T04:26:01.157Z,1009.84
2017-05-06T04:26:56.138Z,1009.88
2017-05-06T04:27:49.669Z,1009.83
2017-05-06T04:28:44.607Z,1009.84
2017-05-06T04:29:44.207Z,1009.87
2017-05-06T04:30:39.103Z,1009.82
2017-05-06T04:31:33.593Z,1009.90
2017-05-06T04:32:33.594Z,1009.84
2017-05-06T04:33:33.124Z,1009.80
2017-05-06T04:34:27.063Z,1009.78
2017-05-06T04:35:27.014Z,1009.74
2017-05-06T04:36:20.949Z,1009.76
2017-05-06T04:37:20.887Z,1009.77
2017-05-06T04:38:14.871Z,1009.79
2017-05-06T04:39:08.826Z,1009.80
2017-05-06T04:39:58.349Z,1009.82
2017-05-06T04:40:52.318Z,1009.79
2017-05-06T04:41:57.804Z,1009.81
2017-05-06T04:42:52.748Z,1009.81
2017-05-06T04:43:47.279Z,1009.79
2017-05-06T04:44:41.813Z,1009.81
2017-05-06T04:45:36.353Z,1009.82
2017-05-06T04:46:24.879Z,1009.87
2017-05-06T04:47:19.376Z,1009.86
2017-05-06T04:48:18.889Z,1009.89
2017-05-06T04:49:06.862Z,1009.87
2017-05-06T04:50:06.807Z,1009.85
2017-05-06T04:51:01.742Z,1009.84
2017-05-06T04:51:56.300Z,1009.83
2017-05-06T04:52:50.835Z,1009.80
2017-05-06T04:53:45.315Z,1009.83
2017-05-06T04:54:33.895Z,1009.78
2017-05-06T04:55:28.413Z,1009.80
2017-05-06T04:56:28.001Z,1009.77
2017-05-06T04:57:21.820Z,1009.76
2017-05-06T04:58:16.856Z,1009.76
2017-05-06T04:59:16.339Z,1009.76
2017-05-06T05:00:10.286Z,1009.76
2017-05-06T05:01:11.230Z,1009.77
2017-05-06T05:02:04.752Z,1009.81
2017-05-06T05:02:59.758Z,1009.80
2017-05-06T05:03:53.234Z,1009.85
2017-05-06T05:04:48.243Z,1009.85
2017-05-06T05:05:47.732Z,1009.78
2017-05-06T05:06:41.679Z,1009.78
2017-05-06T05:07:42.650Z,1009.82
2017-05-06T05:08:42.155Z,1009.84
2017-05-06T05:09:37.089Z,1009.79
2017-05-06T05:10:42.671Z,1009.69
2017-05-06T05:11:31.563Z,1009.78
2017-05-06T05:12:20.096Z,1009.77
2017-05-06T05:13:19.668Z,1009.75
2017-05-06T05:14:13.609Z,1009.75
2017-05-06T05:15:02.549Z,1009.76
2017-05-06T05:16:03.117Z,1009.74
2017-05-06T05:16:51.623Z,1009.75
2017-05-06T05:17:46.099Z,1009.73
2017-05-06T05:18:40.651Z,1009.72
2017-05-06T05:19:40.138Z,1009.73
2017-05-06T05:20:34.586Z,1009.72
2017-05-06T05:21:29.101Z,1009.68
2017-05-06T05:22:17.628Z,1009.67
2017-05-06T05:23:12.137Z,1009.68
2017-05-06T05:24:11.670Z,1009.65
2017-05-06T05:25:05.624Z,1009.66
2017-05-06T05:25:59.560Z,1009.65
2017-05-06T05:26:53.529Z,1009.66
2017-05-06T05:27:53.516Z,1009.65
2017-05-06T05:28:47.475Z,1009.64
2017-05-06T05:29:42.601Z,1009.67
2017-05-06T05:30:35.958Z,1009.65
2017-05-06T05:31:30.873Z,1009.57
2017-05-06T05:32:25.415Z,1009.61
2017-05-06T05:33:18.946Z,1009.54
2017-05-06T05:34:13.883Z,1009.58
2017-05-06T05:35:08.430Z,1009.53
2017-05-06T05:36:01.917Z,1009.58
2017-05-06T05:37:01.883Z,1009.50
2017-05-06T05:37:55.810Z,1009.53
2017-05-06T05:38:55.800Z,1009.53
2017-05-06T05:39:49.759Z,1009.55
2017-05-06T05:40:44.736Z,1009.53
2017-05-06T05:41:39.235Z,1009.53
2017-05-06T05:42:33.749Z,1009.51
2017-05-06T05:43:28.793Z,1009.51
2017-05-06T05:44:22.841Z,1009.45
2017-05-06T05:45:16.357Z,1009.48
2017-05-06T05:46:11.346Z,1009.47
2017-05-06T05:47:10.820Z,1009.46
2017-05-06T05:48:05.818Z,1009.46
2017-05-06T05:49:11.319Z,1009.44
2017-05-06T05:50:05.275Z,1009.48
2017-05-06T05:51:00.216Z,1009.42
2017-05-06T05:51:54.768Z,1009.43
2017-05-06T05:52:49.276Z,1009.45
2017-05-06T05:53:43.820Z,1009.46
2017-05-06T05:54:37.340Z,1009.45
2017-05-06T05:55:32.255Z,1009.46
2017-05-06T05:56:25.807Z,1009.44
2017-05-06T05:57:25.755Z,1009.44
2017-05-06T05:58:19.712Z,1009.44
2017-05-06T05:59:14.649Z,1009.43
2017-05-06T06:00:14.209Z,1009.45
2017-05-06T06:01:09.174Z,1009.46
2017-05-06T06:02:08.887Z,1009.46
2017-05-06T06:03:02.731Z,1009.40
2017-05-06T06:04:02.596Z,1009.39
2017-05-06T06:04:56.572Z,1009.41
2017-05-06T06:05:50.541Z,1009.38
2017-05-06T06:06:38.469Z,1009.36
2017-05-06T06:07:38.447Z,1009.34
2017-05-06T06:08:33.842Z,1009.38
2017-05-06T06:09:27.911Z,1009.40
2017-05-06T06:10:21.429Z,1009.32
2017-05-06T06:11:16.450Z,1009.32
2017-05-06T06:12:15.914Z,1009.31
2017-05-06T06:13:03.943Z,1009.29
2017-05-06T06:13:57.844Z,1009.24
2017-05-06T06:14:51.854Z,1009.23
2017-05-06T06:15:52.801Z,1009.17
2017-05-06T06:16:41.302Z,1009.17
2017-05-06T06:17:34.826Z,1009.21
2017-05-06T06:18:22.814Z,1009.22
2017-05-06T06:19:17.982Z,1009.28
2017-05-06T06:20:17.251Z,1009.22
2017-05-06T06:21:06.236Z,1009.25
2017-05-06T06:22:00.770Z,1009.25
2017-05-06T06:23:06.337Z,1009.27
2017-05-06T06:24:00.245Z,1009.25
2017-05-06T06:24:55.244Z,1009.19
2017-05-06T06:25:48.768Z,1009.20
2017-05-06T06:26:43.749Z,1009.12
2017-05-06T06:27:43.242Z,1009.19
2017-05-06T06:28:31.377Z,1009.17
2017-05-06T06:29:32.492Z,1009.21
2017-05-06T06:30:25.741Z,1009.19
2017-05-06T06:31:20.770Z,1009.21
2017-05-06T06:32:20.234Z,1009.18
2017-05-06T06:33:15.192Z,1009.19
2017-05-06T06:34:09.776Z,1009.17
2017-05-06T06:35:09.336Z,1009.19
2017-05-06T06:35:58.224Z,1009.20
2017-05-06T06:36:52.883Z,1009.24
2017-05-06T06:37:52.217Z,1009.22
2017-05-06T06:38:46.252Z,1009.18
2017-05-06T06:39:41.260Z,1009.22
2017-05-06T06:40:35.122Z,1009.23
2017-05-06T06:41:29.719Z,1009.23
2017-05-06T06:42:29.207Z,1009.18
2017-05-06T06:43:23.150Z,1009.21
2017-05-06T06:44:23.140Z,1009.18
2017-05-06T06:45:17.112Z,1009.19
2017-05-06T06:46:17.048Z,1009.11
2017-05-06T06:47:06.065Z,1009.08
2017-05-06T06:47:59.582Z,1009.15
2017-05-06T06:48:53.564Z,1009.16
2017-05-06T06:49:47.533Z,1009.16
2017-05-06T06:50:36.493Z,1009.10
2017-05-06T06:51:31.071Z,1009.15
2017-05-06T06:52:25.653Z,1009.08
2017-05-06T06:53:19.065Z,1009.11
2017-05-06T06:54:14.058Z,1009.13
2017-05-06T06:55:08.754Z,1009.03
2017-05-06T06:56:02.146Z,1009.16
2017-05-06T06:56:57.318Z,1009.14
2017-05-06T06:58:02.595Z,1009.11
2017-05-06T06:58:57.546Z,1009.05
2017-05-06T06:59:52.357Z,1009.09
2017-05-06T07:00:46.730Z,1009.08
2017-05-06T07:01:40.482Z,1009.12
2017-05-06T07:02:34.145Z,1009.14
2017-05-06T07:03:28.560Z,1009.14
2017-05-06T07:04:22.364Z,1009.03
2017-05-06T07:05:16.277Z,1009.00
2017-05-06T07:06:10.255Z,1009.01
2017-05-06T07:06:59.015Z,1009.05
2017-05-06T07:07:58.706Z,1009.07
2017-05-06T07:08:47.661Z,1009.25
2017-05-06T07:09:42.014Z,1009.06
2017-05-06T07:10:36.546Z,1009.04
2017-05-06T07:11:36.100Z,1009.03
2017-05-06T07:12:30.019Z,1009.21
2017-05-06T07:13:24.271Z,1008.95
2017-05-06T07:14:12.003Z,1008.97
2017-05-06T07:15:07.132Z,1009.04
2017-05-06T07:16:00.485Z,1009.01
2017-05-06T07:16:54.454Z,1009.08
2017-05-06T07:17:48.482Z,1009.06
2017-05-06T07:18:43.446Z,1009.16
2017-05-06T07:19:42.980Z,1009.09
2017-05-06T07:20:30.953Z,1008.97
2017-05-06T07:21:24.888Z,1009.04
2017-05-06T07:22:18.844Z,1009.06
2017-05-06T07:23:07.855Z,1009.01
2017-05-06T07:24:01.411Z,1008.77
2017-05-06T07:25:02.356Z,1008.69
2017-05-06T07:25:49.876Z,1008.79
2017-05-06T07:26:49.821Z,1008.81
2017-05-06T07:27:43.820Z,1008.82
2017-05-06T07:28:33.215Z,1008.85
2017-05-06T07:29:21.414Z,1008.87
2017-05-06T07:30:20.872Z,1008.78
2017-05-06T07:31:15.816Z,1008.84
2017-05-06T07:32:04.426Z,1008.87
2017-05-06T07:32:58.898Z,1008.78
2017-05-06T07:33:52.422Z,1008.74
2017-05-06T07:34:46.628Z,1008.69
2017-05-06T07:35:40.396Z,1008.73
2017-05-06T07:36:34.552Z,1008.72
2017-05-06T07:37:29.341Z,1008.70
2017-05-06T07:38:29.315Z,1008.62
2017-05-06T07:39:22.818Z,1008.67
2017-05-06T07:40:11.805Z,1008.69
2017-05-06T07:41:05.395Z,1008.55
2017-05-06T07:41:59.276Z,1008.62
2017-05-06T07:42:53.270Z,1008.59
2017-05-06T07:43:48.274Z,1008.75
2017-05-06T07:44:47.773Z,1008.66
2017-05-06T07:45:41.737Z,1008.63
2017-05-06T07:46:35.734Z,1008.81
2017-05-06T07:47:30.678Z,1008.84
2017-05-06T07:48:30.816Z,1008.66
2017-05-06T07:49:24.177Z,1008.69
2017-05-06T07:50:18.184Z,1008.74
2017-05-06T07:51:13.134Z,1008.78
2017-05-06T07:52:12.794Z,1008.59
2017-05-06T07:53:06.596Z,1008.68
2017-05-06T07:54:07.639Z,1008.65
2017-05-06T07:55:01.121Z,1008.62
2017-05-06T07:56:01.139Z,1008.60
2017-05-06T07:56:56.045Z,1008.62
2017-05-06T07:57:50.723Z,1008.49
2017-05-06T07:58:45.154Z,1008.40
2017-05-06T07:59:39.684Z,1008.61
2017-05-06T08:00:39.240Z,1008.55
2017-05-06T08:01:28.185Z,1008.63
2017-05-06T08:02:21.762Z,1008.52
2017-05-06T08:03:21.734Z,1008.32
2017-05-06T08:04:16.687Z,1008.42
2017-05-06T08:05:16.196Z,1008.76
2017-05-06T08:06:10.196Z,1008.60
2017-05-06T08:07:11.521Z,1008.71
2017-05-06T08:08:04.653Z,1008.65
2017-05-06T08:08:52.654Z,1008.74
2017-05-06T08:09:40.645Z,1008.55
2017-05-06T08:10:40.591Z,1008.60
2017-05-06T08:11:28.566Z,1008.52
2017-05-06T08:12:28.747Z,1008.39
2017-05-06T08:13:17.546Z,1008.53
2017-05-06T08:14:12.185Z,1008.44
2017-05-06T08:15:05.628Z,1008.56
2017-05-06T08:16:05.579Z,1008.46
2017-05-06T08:16:59.526Z,1008.52
2017-05-06T08:17:59.549Z,1008.49
2017-05-06T08:18:53.511Z,1008.38
2017-05-06T08:19:53.511Z,1008.29
2017-05-06T08:20:42.443Z,1008.31
2017-05-06T08:21:36.047Z,1008.36
2017-05-06T08:22:19.237Z,1008.35
2017-05-06T08:23:12.517Z,1008.23
2017-05-06T08:24:07.556Z,1008.44
2017-05-06T08:25:07.047Z,1008.42
2017-05-06T08:26:01.979Z,1008.36
2017-05-06T08:27:07.532Z,1008.18
2017-05-06T08:28:02.477Z,1008.26
2017-05-06T08:28:57.079Z,1008.26
2017-05-06T08:29:51.544Z,1008.33
2017-05-06T08:30:45.392Z,1008.13
2017-05-06T08:31:34.070Z,1008.21
2017-05-06T08:32:27.579Z,1008.36
2017-05-06T08:33:16.523Z,1008.30
2017-05-06T08:34:11.115Z,1008.25
2017-05-06T08:35:10.635Z,1008.28
2017-05-06T08:35:59.625Z,1008.26
2017-05-06T08:36:54.181Z,1008.22
2017-05-06T08:37:48.655Z,1008.33
2017-05-06T08:38:43.211Z,1008.21
2017-05-06T08:39:42.729Z,1008.18
2017-05-06T08:40:31.760Z,1008.07
2017-05-06T08:41:26.305Z,1008.10
2017-05-06T08:42:25.828Z,1008.10
2017-05-06T08:43:15.030Z,1008.11
2017-05-06T08:44:08.320Z,1008.07
2017-05-06T08:45:03.316Z,1008.13
2017-05-06T08:46:03.089Z,1007.94
2017-05-06T08:46:58.122Z,1008.14
2017-05-06T08:47:57.345Z,1008.19
2017-05-06T08:48:51.342Z,1008.00
2017-05-06T08:49:45.385Z,1008.02
2017-05-06T08:50:39.760Z,1008.13
2017-05-06T08:51:28.254Z,1008.11
2017-05-06T08:52:22.179Z,1008.06
2017-05-06T08:53:21.761Z,1007.89
2017-05-06T08:54:15.952Z,1008.01
2017-05-06T08:55:09.890Z,1007.94
2017-05-06T08:56:04.669Z,1007.99
2017-05-06T08:56:59.224Z,1008.14
2017-05-06T08:57:58.796Z,1008.18
2017-05-06T08:58:41.775Z,1008.16
2017-05-06T08:59:41.302Z,1007.91
2017-05-06T09:00:41.288Z,1007.88
2017-05-06T09:01:41.242Z,1007.94
2017-05-06T09:02:35.222Z,1008.13
2017-05-06T09:03:24.225Z,1007.97
2017-05-06T09:04:17.790Z,1007.83
2017-05-06T09:05:12.724Z,1007.88
2017-05-06T09:06:07.660Z,1008.04
2017-05-06T09:07:12.949Z,1007.87
2017-05-06T09:08:06.943Z,1007.86
2017-05-06T09:09:00.769Z,1007.86
2017-05-06T09:09:55.082Z,1007.86
2017-05-06T09:10:55.080Z,1007.84
2017-05-06T09:11:48.975Z,1007.86
2017-05-06T09:12:42.748Z,1007.83
2017-05-06T09:13:37.708Z,1007.79
2017-05-06T09:14:37.635Z,1007.83
2017-05-06T09:15:26.515Z,1007.79
2017-05-06T09:16:19.640Z,1007.80
2017-05-06T09:17:14.577Z,1007.79
2017-05-06T09:18:14.685Z,1007.74
2017-05-06T09:19:08.585Z,1007.67
2017-05-06T09:20:02.605Z,1007.69
2017-05-06T09:20:57.059Z,1007.72
2017-05-06T09:21:51.721Z,1007.65
2017-05-06T09:22:39.392Z,1007.73
2017-05-06T09:23:34.602Z,1007.65
2017-05-06T09:24:28.110Z,1007.61
2017-05-06T09:25:22.040Z,1007.53
2017-05-06T09:26:16.038Z,1007.53
2017-05-06T09:27:11.029Z,1007.55
2017-05-06T09:28:05.575Z,1007.51
2017-05-06T09:28:59.124Z,1007.49
2017-05-06T09:29:48.083Z,1007.50
2017-05-06T09:30:47.638Z,1007.38
2017-05-06T09:31:36.623Z,1007.36
2017-05-06T09:32:31.150Z,1007.42
2017-05-06T09:33:19.700Z,1007.47
2017-05-06T09:34:13.222Z,1007.46
2017-05-06T09:35:13.243Z,1007.46
2017-05-06T09:36:08.239Z,1007.40
2017-05-06T09:37:02.749Z,1007.33
2017-05-06T09:38:02.278Z,1007.38
2017-05-06T09:38:56.270Z,1007.34
2017-05-06T09:39:50.213Z,1007.38
2017-05-06T09:40:39.233Z,1007.33
2017-05-06T09:41:33.827Z,1007.35
2017-05-06T09:42:28.263Z,1007.40
2017-05-06T09:43:22.852Z,1007.34
2017-05-06T09:44:16.351Z,1007.34
2017-05-06T09:45:10.377Z,1007.31
2017-05-06T09:46:04.340Z,1007.24
2017-05-06T09:46:53.367Z,1007.29
2017-05-06T09:47:46.910Z,1007.32
2017-05-06T09:48:46.830Z,1007.30
2017-05-06T09:49:40.799Z,1007.38
2017-05-06T09:50:35.817Z,1007.28
2017-05-06T09:51:29.338Z,1007.04
2017-05-06T09:52:23.418Z,1007.21
2017-05-06T09:53:11.317Z,1007.23
2017-05-06T09:53:59.326Z,1007.19
2017-05-06T09:54:48.325Z,1007.20
2017-05-06T09:55:42.813Z,1007.22
2017-05-06T09:56:42.335Z,1007.21
2017-05-06T09:57:25.362Z,1007.28
2017-05-06T09:58:19.890Z,1007.21
2017-05-06T09:59:13.394Z,1007.10
2017-05-06T09:59:56.446Z,1007.05
2017-05-06T10:00:50.975Z,1007.05
2017-05-06T10:01:44.533Z,1007.03
2017-05-06T10:02:44.516Z,1006.99
2017-05-06T10:03:38.503Z,1007.02
2017-05-06T10:04:33.501Z,1007.02
2017-05-06T10:05:27.035Z,1007.05
2017-05-06T10:06:22.021Z,1006.99
2017-05-06T10:07:16.580Z,1006.77
2017-05-06T10:08:10.140Z,1006.97
2017-05-06T10:09:04.090Z,1007.03
2017-05-06T10:09:53.051Z,1006.98
2017-05-06T10:10:52.594Z,1006.92
2017-05-06T10:11:47.592Z,1006.95
2017-05-06T10:12:36.147Z,1006.96
2017-05-06T10:13:29.672Z,1006.98
2017-05-06T10:14:24.664Z,1006.91
2017-05-06T10:15:13.242Z,1006.92
2017-05-06T10:16:06.771Z,1006.90
2017-05-06T10:17:06.740Z,1006.93
2017-05-06T10:18:00.733Z,1006.87
2017-05-06T10:18:55.651Z,1006.83
2017-05-06T10:19:50.245Z,1006.84
2017-05-06T10:20:44.844Z,1006.81
2017-05-06T10:21:39.328Z,1006.84
2017-05-06T10:22:33.857Z,1006.85
2017-05-06T10:23:27.452Z,1006.82
2017-05-06T10:24:21.478Z,1006.56
2017-05-06T10:25:15.405Z,1006.84
2017-05-06T10:26:15.375Z,1006.61
2017-05-06T10:27:04.331Z,1006.73
2017-05-06T10:27:58.825Z,1006.68
2017-05-06T10:28:58.427Z,1006.74
2017-05-06T10:29:47.380Z,1006.71
2017-05-06T10:30:40.973Z,1006.60
2017-05-06T10:31:34.910Z,1006.39
2017-05-06T10:32:17.910Z,1006.47
2017-05-06T10:33:17.456Z,1006.82
2017-05-06T10:34:11.408Z,1006.83
2017-05-06T10:35:12.435Z,1006.88
2017-05-06T10:36:11.966Z,1006.74
2017-05-06T10:37:11.965Z,1006.68
2017-05-06T10:38:05.887Z,1006.72
2017-05-06T10:39:00.867Z,1006.69
2017-05-06T10:40:00.418Z,1006.71
2017-05-06T10:40:55.478Z,1006.65
2017-05-06T10:41:48.970Z,1006.45
2017-05-06T10:42:42.913Z,1006.47
2017-05-06T10:43:37.111Z,1006.50
2017-05-06T10:44:25.863Z,1006.59
2017-05-06T10:45:14.469Z,1006.64
2017-05-06T10:46:08.947Z,1006.74
2017-05-06T10:47:08.514Z,1006.94
2017-05-06T10:48:03.426Z,1006.80
2017-05-06T10:49:03.018Z,1006.80
2017-05-06T10:49:56.894Z,1006.86
2017-05-06T10:50:50.999Z,1006.91
2017-05-06T10:51:44.968Z,1006.79
2017-05-06T10:52:44.875Z,1006.72
2017-05-06T10:53:38.920Z,1006.69
2017-05-06T10:54:26.905Z,1006.70
2017-05-06T10:55:15.882Z,1006.68
2017-05-06T10:56:21.432Z,1006.75
2017-05-06T10:57:15.446Z,1006.51
2017-05-06T10:57:58.363Z,1006.81
2017-05-06T10:58:46.920Z,1006.53
2017-05-06T10:59:40.452Z,1006.81